Time;durP1;ratioP1;P1;durP2;ratioP2;P2;SDS_P1;SDS_P2;PMS_P1;PMS_P2;Temp;Humidity;BMP_temperature;BMP_pressure;BME280_temperature;BME280_humidity;BME280_pressure;Samples;Min_cycle;Max_cycle;Signal;HPM_P1;HPM_P2
2023/03/04 00:02:01;;;;;;;12.93;4.00;;;;;;;5.05;100.00;101060.97;5106889;28;20506;-60
2023/03/04 00:04:28;;;;;;;21.13;4.93;;;;;;;5.04;100.00;101060.13;5104004;28;20445;-60
2023/03/04 00:06:54;;;;;;;10.87;3.10;;;;;;;5.06;100.00;101057.41;5102606;28;20548;-62
2023/03/04 00:09:21;;;;;;;12.03;3.40;;;;;;;5.17;100.00;101065.59;5102527;28;20488;-61
2023/03/04 00:11:48;;;;;;;15.27;5.10;;;;;;;5.21;100.00;101066.31;5102171;28;21010;-60
2023/03/04 00:14:16;;;;;;;12.20;3.73;;;;;;;5.21;100.00;101069.78;5102871;28;20444;-64
2023/03/04 00:16:42;;;;;;;16.37;4.00;;;;;;;5.14;100.00;101070.22;5102000;28;20478;-62
2023/03/04 00:19:10;;;;;;;16.13;4.13;;;;;;;4.93;100.00;101065.19;5119340;28;20519;-60
2023/03/04 00:21:36;;;;;;;16.80;4.60;;;;;;;5.07;100.00;101069.72;5114056;28;20525;-60
2023/03/04 00:24:03;;;;;;;20.77;3.53;;;;;;;5.06;100.00;101065.34;5102101;28;20456;-60
2023/03/04 00:26:30;;;;;;;14.43;3.50;;;;;;;4.98;100.00;101065.78;5118517;28;20473;-59
2023/03/04 00:28:56;;;;;;;15.10;4.23;;;;;;;4.94;100.00;101060.72;5110839;28;20521;-61
2023/03/04 00:31:24;;;;;;;10.77;3.80;;;;;;;4.94;100.00;101058.06;5102648;28;20510;-60
2023/03/04 00:33:51;;;;;;;8.40;3.53;;;;;;;5.06;100.00;101057.41;5103834;28;20464;-60
2023/03/04 00:36:18;;;;;;;17.30;4.47;;;;;;;5.12;100.00;101059.72;5110870;28;20506;-60
2023/03/04 00:38:44;;;;;;;16.87;4.70;;;;;;;5.12;100.00;101061.50;5111340;28;20513;-60
2023/03/04 00:41:11;;;;;;;14.40;3.93;;;;;;;5.17;100.00;101054.13;5115104;28;20511;-60
2023/03/04 00:43:37;;;;;;;14.63;3.77;;;;;;;5.17;100.00;101057.63;5106642;28;20487;-60
2023/03/04 00:46:04;;;;;;;20.70;4.60;;;;;;;5.18;100.00;101048.75;5103460;28;20918;-59
2023/03/04 00:48:32;;;;;;;14.30;4.03;;;;;;;5.12;100.00;101053.53;5103519;28;20431;-59
2023/03/04 00:50:59;;;;;;;12.83;3.90;;;;;;;5.15;100.00;101054.22;5122364;28;20520;-60
2023/03/04 00:53:26;;;;;;;20.77;3.80;;;;;;;5.21;100.00;101048.59;5115852;28;20452;-60
2023/03/04 00:55:52;;;;;;;21.67;4.53;;;;;;;5.08;100.00;101060.81;5103751;28;21025;-60
2023/03/04 00:58:19;;;;;;;14.23;3.90;;;;;;;5.06;100.00;101055.59;5123365;28;20474;-61
2023/03/04 01:00:45;;;;;;;16.30;3.57;;;;;;;4.92;100.00;101052.84;5105000;28;20505;-60
2023/03/04 01:03:12;;;;;;;14.97;3.43;;;;;;;4.93;100.00;101053.69;5111607;28;20487;-60
2023/03/04 01:05:40;;;;;;;15.00;3.60;;;;;;;5.05;100.00;101058.31;5110399;28;20501;-60
2023/03/04 01:08:07;;;;;;;11.87;3.67;;;;;;;4.90;100.00;101060.88;5102892;28;20502;-61
2023/03/04 01:10:34;;;;;;;21.57;4.30;;;;;;;4.64;100.00;101057.00;5105664;28;20465;-61
2023/03/04 01:13:00;;;;;;;20.07;4.37;;;;;;;4.74;100.00;101054.72;5101206;28;20493;-61
2023/03/04 01:15:27;;;;;;;10.73;3.47;;;;;;;4.71;100.00;101054.88;5102222;28;20461;-60
2023/03/04 01:17:54;;;;;;;15.00;4.27;;;;;;;4.89;100.00;101045.06;5103052;28;20444;-60
2023/03/04 01:20:21;;;;;;;17.23;3.73;;;;;;;4.91;100.00;101051.13;5108508;28;20489;-60
2023/03/04 01:22:49;;;;;;;16.93;3.70;;;;;;;4.96;100.00;101045.59;5122643;28;20487;-60
2023/03/04 01:25:15;;;;;;;17.17;3.37;;;;;;;4.86;100.00;101040.81;5105597;28;20834;-60
2023/03/04 01:27:42;;;;;;;9.87;2.90;;;;;;;4.84;100.00;101039.16;5110658;28;20528;-60
2023/03/04 01:30:10;;;;;;;15.17;3.93;;;;;;;4.86;100.00;101040.81;5122638;28;20424;-60
2023/03/04 01:32:37;;;;;;;13.57;4.10;;;;;;;4.84;100.00;101032.09;5103294;28;20492;-61
2023/03/04 01:35:04;;;;;;;8.87;3.63;;;;;;;5.04;100.00;101032.78;5107873;28;20440;-60
2023/03/04 01:37:30;;;;;;;10.50;3.20;;;;;;;5.13;100.00;101034.91;5122571;28;21075;-60
2023/03/04 01:39:58;;;;;;;14.60;3.70;;;;;;;5.18;100.00;101019.59;5106354;28;20547;-60
2023/03/04 01:42:26;;;;;;;15.67;3.80;;;;;;;5.19;100.00;101023.97;5106634;28;20489;-61
2023/03/04 01:44:53;;;;;;;10.00;3.13;;;;;;;5.10;100.00;101019.16;5102450;28;20453;-61
2023/03/04 01:47:22;;;;;;;8.40;2.83;;;;;;;5.12;100.00;101019.09;5102484;28;20486;-60
2023/03/04 01:49:53;;;;;;;10.20;2.77;;;;;;;5.19;100.00;101008.06;5108718;28;20465;-60
2023/03/04 01:52:20;;;;;;;11.97;3.30;;;;;;;5.08;100.00;101011.28;5120486;28;20511;-62
2023/03/04 01:54:47;;;;;;;11.93;3.30;;;;;;;5.05;100.00;101000.00;5100695;28;20913;-62
2023/03/04 01:57:18;;;;;;;19.87;4.70;;;;;;;5.06;100.00;101007.88;5102050;28;20572;-62
2023/03/04 01:59:45;;;;;;;10.90;3.20;;;;;;;5.12;100.00;100997.88;5101101;28;21091;-62
2023/03/04 02:02:12;;;;;;;12.17;3.83;;;;;;;5.16;100.00;100987.03;5100945;28;20485;-63
2023/03/04 02:04:39;;;;;;;20.50;3.47;;;;;;;4.76;100.00;100983.97;5102154;28;20469;-60
2023/03/04 02:07:06;;;;;;;12.67;3.47;;;;;;;5.27;100.00;100986.41;5101791;28;20501;-61
2023/03/04 02:09:34;;;;;;;10.93;3.80;;;;;;;5.50;100.00;100986.88;5118452;28;20966;-59
2023/03/04 02:12:01;;;;;;;19.70;3.40;;;;;;;5.44;100.00;100986.28;5100763;28;20479;-61
2023/03/04 02:14:29;;;;;;;7.03;2.90;;;;;;;5.45;100.00;100977.38;5101254;28;20466;-60
2023/03/04 02:16:56;;;;;;;10.30;3.40;;;;;;;5.39;100.00;100984.84;5100906;28;20520;-60
2023/03/04 02:19:32;;;;;;;15.90;4.20;;;;;;;5.30;100.00;100980.09;5121078;28;20474;-60
2023/03/04 02:21:58;;;;;;;12.00;3.30;;;;;;;5.18;100.00;100985.13;5108881;28;20502;-61
2023/03/04 02:24:29;;;;;;;15.17;3.20;;;;;;;5.13;100.00;100983.69;5101945;28;20500;-60
2023/03/04 02:26:57;;;;;;;15.53;3.27;;;;;;;5.18;100.00;100979.84;5100295;28;20513;-61
2023/03/04 02:29:24;;;;;;;14.03;3.50;;;;;;;5.27;100.00;100978.44;5101563;28;20525;-61
2023/03/04 02:31:52;;;;;;;10.43;3.17;;;;;;;5.47;100.00;100979.94;5105644;28;20480;-61
2023/03/04 02:34:20;;;;;;;12.73;4.80;;;;;;;5.43;100.00;100987.25;5115986;28;20492;-60
2023/03/04 02:36:48;;;;;;;14.00;2.47;;;;;;;5.46;100.00;100972.94;5098925;28;20520;-60
2023/03/04 02:39:23;;;;;;;15.77;3.80;;;;;;;5.49;100.00;100972.75;5104581;28;20556;-61
2023/03/04 02:41:51;;;;;;;11.00;3.90;;;;;;;5.43;100.00;100975.75;5079988;28;20504;-62
2023/03/04 02:44:21;;;;;;;14.40;3.77;;;;;;;5.31;100.00;100973.81;5097276;28;20761;-61
2023/03/04 02:46:49;;;;;;;14.50;5.53;;;;;;;5.42;100.00;100974.06;5101347;28;20541;-61
2023/03/04 02:49:16;;;;;;;10.30;4.43;;;;;;;5.31;100.00;100979.13;5102007;28;20439;-62
2023/03/04 02:51:43;;;;;;;16.40;3.37;;;;;;;5.45;100.00;100965.91;5114915;28;20498;-61
2023/03/04 02:54:15;;;;;;;15.53;3.30;;;;;;;5.44;100.00;100978.31;5118336;28;20445;-61
2023/03/04 02:56:45;;;;;;;10.27;2.20;;;;;;;5.52;100.00;100975.25;5100667;28;20500;-62
2023/03/04 02:59:12;;;;;;;9.30;3.00;;;;;;;5.37;100.00;100968.16;5100777;28;20764;-61
2023/03/04 03:01:40;;;;;;;9.20;3.33;;;;;;;5.38;100.00;100967.22;5105444;28;20477;-62
2023/03/04 03:04:07;;;;;;;11.47;3.20;;;;;;;5.31;100.00;100960.56;5122137;28;20454;-62
2023/03/04 03:06:33;;;;;;;12.03;3.10;;;;;;;5.42;100.00;100966.94;5119031;28;20483;-62
2023/03/04 03:09:00;;;;;;;9.63;2.80;;;;;;;5.42;100.00;100974.91;5120288;28;20486;-61
2023/03/04 03:11:26;;;;;;;9.70;3.80;;;;;;;5.16;100.00;100960.50;5103696;28;20481;-62
2023/03/04 03:13:53;;;;;;;11.57;3.40;;;;;;;5.18;100.00;100955.97;5100052;28;20436;-63
2023/03/04 03:16:20;;;;;;;14.20;4.63;;;;;;;5.20;100.00;100956.72;5100712;28;20489;-63
2023/03/04 03:18:48;;;;;;;9.77;3.07;;;;;;;5.25;100.00;100957.31;5110773;28;20474;-62
2023/03/04 03:21:14;;;;;;;9.17;3.20;;;;;;;5.29;100.00;100960.66;5120873;28;20833;-62
2023/03/04 03:23:42;;;;;;;14.70;4.97;;;;;;;5.30;100.00;100951.75;5120527;28;20960;-63
2023/03/04 03:26:08;;;;;;;11.03;2.47;;;;;;;5.30;100.00;100950.91;5108311;28;20503;-62
2023/03/04 03:28:35;;;;;;;18.60;4.47;;;;;;;5.34;100.00;100952.44;5100336;28;20481;-62
2023/03/04 03:31:02;;;;;;;11.00;3.07;;;;;;;5.27;100.00;100951.94;5099466;28;20486;-62
2023/03/04 03:33:28;;;;;;;9.93;2.90;;;;;;;5.21;100.00;100939.91;5101120;28;20488;-62
2023/03/04 03:35:56;;;;;;;11.10;3.00;;;;;;;5.36;100.00;100940.78;5105140;28;20480;-62
2023/03/04 03:38:23;;;;;;;11.93;2.60;;;;;;;5.31;100.00;100948.16;5120238;28;20968;-62
2023/03/04 03:40:50;;;;;;;7.50;2.60;;;;;;;5.03;100.00;100941.78;5099577;28;20531;-62
2023/03/04 03:43:16;;;;;;;13.07;2.97;;;;;;;5.07;100.00;100939.84;5102418;28;20485;-62
2023/03/04 03:45:43;;;;;;;10.00;3.13;;;;;;;5.08;100.00;100941.53;5105700;28;20508;-62
2023/03/04 03:48:09;;;;;;;12.33;2.90;;;;;;;5.25;100.00;100941.41;5121353;28;20424;-62
2023/03/04 03:50:36;;;;;;;10.57;2.47;;;;;;;5.09;100.00;100941.47;5119649;28;21125;-63
2023/03/04 03:53:04;;;;;;;9.37;2.40;;;;;;;5.28;100.00;100941.25;5111795;28;20480;-62
2023/03/04 03:55:31;;;;;;;8.77;2.33;;;;;;;5.30;100.00;100937.66;5099360;28;20480;-62
2023/03/04 03:57:57;;;;;;;8.00;2.70;;;;;;;5.28;100.00;100935.09;5102638;28;20473;-62
2023/03/04 04:00:24;;;;;;;8.63;2.70;;;;;;;5.30;100.00;100940.31;5100331;28;20494;-62
2023/03/04 04:02:51;;;;;;;10.53;2.40;;;;;;;5.31;100.00;100934.91;5087666;28;20481;-62
2023/03/04 04:05:18;;;;;;;5.00;2.20;;;;;;;5.27;100.00;100926.25;5101188;28;20482;-62
2023/03/04 04:07:44;;;;;;;6.83;3.00;;;;;;;5.15;100.00;100932.28;5100702;28;20447;-61
2023/03/04 04:10:13;;;;;;;8.13;2.30;;;;;;;5.22;100.00;100928.34;5099459;28;20449;-61
2023/03/04 04:12:39;;;;;;;9.13;2.80;;;;;;;5.40;100.00;100928.19;5097938;28;20983;-61
2023/03/04 04:15:07;;;;;;;11.97;2.13;;;;;;;5.27;100.00;100930.72;5099688;28;20446;-62
2023/03/04 04:17:34;;;;;;;11.43;2.40;;;;;;;4.82;100.00;100916.53;5100167;28;20453;-62
2023/03/04 04:20:00;;;;;;;9.27;2.93;;;;;;;5.03;100.00;100922.41;5104570;28;20873;-61
2023/03/04 04:22:27;;;;;;;12.63;2.27;;;;;;;5.30;100.00;100929.72;5105750;28;20504;-61
2023/03/04 04:24:54;;;;;;;5.03;1.70;;;;;;;5.34;100.00;100923.28;5109319;28;20485;-61
2023/03/04 04:27:22;;;;;;;7.03;2.40;;;;;;;5.35;100.00;100927.66;5111284;28;20474;-61
2023/03/04 04:29:49;;;;;;;13.93;2.67;;;;;;;5.37;100.00;100925.75;5122699;28;20428;-61
2023/03/04 04:32:15;;;;;;;12.13;2.60;;;;;;;5.42;100.00;100928.97;5101958;28;20531;-61
2023/03/04 04:34:42;;;;;;;7.93;2.03;;;;;;;5.42;100.00;100929.81;5104218;28;20876;-62
2023/03/04 04:37:08;;;;;;;8.47;1.90;;;;;;;5.53;100.00;100923.03;5103630;28;20500;-62
2023/03/04 04:39:35;;;;;;;14.20;3.70;;;;;;;5.35;100.00;100920.53;5102932;28;20509;-62
2023/03/04 04:42:02;;;;;;;15.97;2.70;;;;;;;5.32;100.00;100919.88;5102835;28;20521;-61
2023/03/04 04:44:30;;;;;;;8.73;2.57;;;;;;;5.47;100.00;100911.00;5103628;28;20442;-61
2023/03/04 04:46:56;;;;;;;12.50;2.00;;;;;;;5.41;100.00;100908.69;5102934;28;20489;-60
2023/03/04 04:49:23;;;;;;;11.00;2.60;;;;;;;5.52;100.00;100914.22;5118210;28;20968;-61
2023/03/04 04:51:49;;;;;;;16.63;2.87;;;;;;;5.37;100.00;100905.38;5105813;28;21068;-62
2023/03/04 04:54:16;;;;;;;8.83;3.00;;;;;;;5.61;100.00;100907.53;5103188;28;20479;-61
2023/03/04 04:56:43;;;;;;;6.87;3.37;;;;;;;5.96;100.00;100908.03;5113546;28;20524;-61
2023/03/04 04:59:09;;;;;;;6.77;2.70;;;;;;;5.83;100.00;100912.34;5123204;28;20437;-61
2023/03/04 05:01:37;;;;;;;7.67;2.43;;;;;;;5.77;100.00;100915.41;5102669;28;20784;-60
2023/03/04 05:04:04;;;;;;;10.27;2.50;;;;;;;5.74;100.00;100916.44;5105015;28;20482;-60
2023/03/04 05:06:31;;;;;;;7.27;2.53;;;;;;;5.65;100.00;100917.84;5102888;28;20504;-60
2023/03/04 05:08:57;;;;;;;9.53;2.67;;;;;;;5.66;100.00;100919.56;5102814;28;20484;-60
2023/03/04 05:11:24;;;;;;;13.00;3.67;;;;;;;5.72;100.00;100914.81;5108886;28;20515;-60
2023/03/04 05:13:51;;;;;;;8.83;3.30;;;;;;;5.75;100.00;100919.94;5101743;28;20951;-61
2023/03/04 05:16:18;;;;;;;10.57;4.37;;;;;;;5.58;100.00;100916.50;5103334;28;20505;-60
2023/03/04 05:18:46;;;;;;;5.27;2.77;;;;;;;5.50;100.00;100920.56;5102712;28;20448;-61
2023/03/04 05:21:13;;;;;;;11.13;3.33;;;;;;;5.60;100.00;100922.56;5102054;28;20483;-61
2023/03/04 05:23:41;;;;;;;11.53;2.77;;;;;;;5.64;100.00;100929.41;5102513;28;20993;-61
2023/03/04 05:26:08;;;;;;;14.30;2.43;;;;;;;5.58;100.00;100924.47;5111774;28;20873;-61
2023/03/04 05:28:35;;;;;;;9.70;3.07;;;;;;;5.50;100.00;100924.06;5121833;28;20462;-60
2023/03/04 05:31:02;;;;;;;13.80;3.47;;;;;;;5.37;100.00;100925.75;5100724;28;20553;-60
2023/03/04 05:33:28;;;;;;;6.77;2.53;;;;;;;5.35;100.00;100919.69;5102611;28;20453;-60
2023/03/04 05:35:57;;;;;;;4.33;2.90;;;;;;;5.31;100.00;100912.84;5113492;28;20502;-61
2023/03/04 05:38:25;;;;;;;7.97;2.77;;;;;;;5.34;100.00;100912.66;5117922;28;20962;-60
2023/03/04 05:40:58;;;;;;;10.00;2.50;;;;;;;5.34;100.00;100918.81;5101313;28;20514;-60
2023/03/04 05:43:24;;;;;;;15.40;2.67;;;;;;;5.27;100.00;100920.97;5102274;28;20973;-60
2023/03/04 05:45:51;;;;;;;12.13;3.20;;;;;;;5.06;100.00;100914.28;5101331;28;20489;-70
2023/03/04 05:48:18;;;;;;;9.20;3.37;;;;;;;5.14;100.00;100921.78;5102232;28;20464;-60
2023/03/04 05:50:44;;;;;;;8.53;2.60;;;;;;;5.15;100.00;100913.72;5100349;28;20489;-62
2023/03/04 05:53:12;;;;;;;6.70;2.73;;;;;;;5.20;100.00;100916.97;5102029;28;20481;-62
2023/03/04 05:55:39;;;;;;;6.23;2.30;;;;;;;5.04;100.00;100918.81;5099518;28;20583;-61
2023/03/04 05:58:05;;;;;;;10.43;2.40;;;;;;;4.55;100.00;100925.09;5100684;28;20524;-61
2023/03/04 06:00:32;;;;;;;7.87;2.50;;;;;;;4.44;100.00;100925.66;5099908;28;20484;-61
2023/03/04 06:02:59;;;;;;;5.00;2.77;;;;;;;4.27;100.00;100926.63;5102020;28;20449;-62
2023/03/04 06:05:25;;;;;;;9.70;2.60;;;;;;;4.27;100.00;100929.28;5102086;28;20732;-61
2023/03/04 06:07:52;;;;;;;7.97;2.60;;;;;;;4.05;100.00;100926.06;5110938;28;20465;-61
2023/03/04 06:10:20;;;;;;;16.93;3.20;;;;;;;4.05;100.00;100924.28;5121230;28;20878;-61
2023/03/04 06:12:47;;;;;;;10.57;2.60;;;;;;;4.08;100.00;100928.53;5103791;28;20494;-63
2023/03/04 06:15:14;;;;;;;10.10;3.50;;;;;;;4.01;100.00;100922.75;5107488;28;20452;-62
2023/03/04 06:17:42;;;;;;;4.93;2.33;;;;;;;4.01;100.00;100932.44;5101927;28;20890;-62
2023/03/04 06:20:10;;;;;;;7.73;2.70;;;;;;;3.92;100.00;100928.50;5099396;28;20899;-61
2023/03/04 06:22:37;;;;;;;8.90;2.80;;;;;;;3.86;100.00;100927.03;5101207;28;20540;-62
2023/03/04 06:25:04;;;;;;;6.73;2.63;;;;;;;3.90;100.00;100931.22;5101470;28;20452;-65
2023/03/04 06:27:32;;;;;;;10.90;3.17;;;;;;;4.12;100.00;100930.09;5100924;28;20559;-66
2023/03/04 06:30:00;;;;;;;13.70;3.63;;;;;;;3.97;100.00;100929.09;5101150;28;20467;-64
2023/03/04 06:32:27;;;;;;;10.73;3.70;;;;;;;3.93;100.00;100924.94;5099862;28;20484;-65
2023/03/04 06:34:54;;;;;;;9.10;2.90;;;;;;;4.02;100.00;100924.44;5101141;28;20460;-65
2023/03/04 06:37:20;;;;;;;8.70;3.60;;;;;;;4.07;100.00;100921.53;5099542;28;20614;-65
2023/03/04 06:39:47;;;;;;;5.60;2.00;;;;;;;4.13;100.00;100919.44;5103446;28;20458;-65
2023/03/04 06:42:14;;;;;;;5.73;4.07;;;;;;;4.25;100.00;100919.69;5119673;28;20478;-65
2023/03/04 06:44:42;;;;;;;8.53;2.07;;;;;;;4.43;100.00;100939.03;5120321;28;21055;-65
2023/03/04 06:47:08;;;;;;;9.93;2.50;;;;;;;4.48;100.00;100927.22;5113673;28;20500;-64
2023/03/04 06:49:35;;;;;;;4.50;2.00;;;;;;;4.64;100.00;100937.81;5101783;28;20462;-65
2023/03/04 06:52:02;;;;;;;4.07;1.93;;;;;;;4.56;100.00;100928.59;5099571;28;20513;-65
2023/03/04 06:54:29;;;;;;;7.17;2.70;;;;;;;4.56;100.00;100937.38;5102171;28;20443;-63
2023/03/04 06:56:55;;;;;;;7.23;2.70;;;;;;;4.63;100.00;100930.81;5102077;28;20481;-63
2023/03/04 06:59:22;;;;;;;4.40;2.30;;;;;;;4.75;100.00;100942.50;5116709;28;20486;-63
2023/03/04 07:01:50;;;;;;;9.47;2.30;;;;;;;4.76;100.00;100930.16;5113969;28;20545;-63
2023/03/04 07:04:17;;;;;;;4.40;2.80;;;;;;;4.90;100.00;100939.00;5101147;28;20926;-64
2023/03/04 07:06:43;;;;;;;7.87;2.00;;;;;;;4.93;100.00;100934.47;5118566;28;20575;-65
2023/03/04 07:09:10;;;;;;;5.33;2.30;;;;;;;4.94;100.00;100929.06;5118984;28;20457;-66
2023/03/04 07:11:37;;;;;;;10.50;3.83;;;;;;;4.92;100.00;100932.78;5101539;28;20498;-64
2023/03/04 07:14:03;;;;;;;8.27;2.00;;;;;;;5.05;100.00;100929.34;5099645;28;20835;-64
2023/03/04 07:16:30;;;;;;;4.20;2.10;;;;;;;5.19;100.00;100936.50;5100795;28;20830;-63
2023/03/04 07:18:58;;;;;;;6.80;3.00;;;;;;;5.23;100.00;100931.84;5102917;28;20427;-63
2023/03/04 07:21:25;;;;;;;5.63;2.57;;;;;;;5.23;100.00;100934.50;5101641;28;21017;-63
2023/03/04 07:23:52;;;;;;;7.37;3.10;;;;;;;5.20;100.00;100937.34;5097933;28;20444;-64
2023/03/04 07:26:18;;;;;;;5.40;2.63;;;;;;;5.13;100.00;100934.19;5100381;28;20555;-61
2023/03/04 07:28:45;;;;;;;8.67;2.70;;;;;;;5.32;100.00;100935.78;5101003;28;20500;-60
2023/03/04 07:31:15;;;;;;;4.10;2.40;;;;;;;5.34;100.00;100936.53;5115968;28;20469;-61
2023/03/04 07:33:41;;;;;;;4.77;2.87;;;;;;;5.06;100.00;100935.47;5110192;28;20464;-61
2023/03/04 07:36:10;;;;;;;6.23;3.70;;;;;;;5.03;100.00;100928.53;5100484;28;20547;-61
2023/03/04 07:38:36;;;;;;;7.70;4.30;;;;;;;5.03;100.00;100925.88;5120135;28;20535;-60
2023/03/04 07:41:03;;;;;;;13.70;3.43;;;;;;;5.37;100.00;100933.69;5120020;28;20485;-61
2023/03/04 07:43:30;;;;;;;11.37;3.13;;;;;;;5.54;100.00;100935.34;5102271;28;20471;-65
2023/03/04 07:46:00;;;;;;;9.30;2.90;;;;;;;5.37;100.00;100928.41;5109482;28;20508;-65
2023/03/04 07:48:27;;;;;;;6.10;2.90;;;;;;;5.16;100.00;100930.50;5097331;28;20469;-62
2023/03/04 07:51:04;;;;;;;7.73;2.77;;;;;;;5.10;100.00;100929.03;5098289;28;20512;-62
2023/03/04 07:53:32;;;;;;;7.80;2.77;;;;;;;5.01;100.00;100929.59;5102245;28;20453;-62
2023/03/04 07:55:58;;;;;;;4.97;3.33;;;;;;;5.14;100.00;100929.72;5103381;28;20506;-62
2023/03/04 07:58:25;;;;;;;9.67;3.53;;;;;;;5.22;100.00;100930.13;5104293;28;20429;-61
2023/03/04 08:00:52;;;;;;;11.87;4.00;;;;;;;5.16;100.00;100934.00;5103672;28;20535;-62
2023/03/04 08:03:18;;;;;;;4.47;2.63;;;;;;;5.08;100.00;100931.78;5104352;28;21025;-61
2023/03/04 08:05:45;;;;;;;11.73;3.37;;;;;;;5.28;100.00;100938.59;5102997;28;21029;-62
2023/03/04 08:08:12;;;;;;;9.73;2.83;;;;;;;5.20;100.00;100926.72;5103540;28;20443;-62
2023/03/04 08:10:40;;;;;;;5.57;2.70;;;;;;;5.44;100.00;100935.88;5104556;28;20813;-62
2023/03/04 08:13:06;;;;;;;8.07;3.50;;;;;;;5.46;100.00;100930.50;5103348;28;20473;-61
2023/03/04 08:15:34;;;;;;;10.03;3.37;;;;;;;5.13;100.00;100935.97;5108174;28;20468;-61
2023/03/04 08:18:01;;;;;;;12.33;3.10;;;;;;;5.20;100.00;100935.53;5112356;28;20495;-61
2023/03/04 08:20:27;;;;;;;8.23;3.63;;;;;;;5.13;100.00;100943.94;5107667;28;20469;-62
2023/03/04 08:22:54;;;;;;;9.97;3.87;;;;;;;5.06;100.00;100938.97;5124155;28;20487;-62
2023/03/04 08:25:21;;;;;;;14.83;3.83;;;;;;;5.28;100.00;100938.59;5107122;28;20484;-62
2023/03/04 08:27:49;;;;;;;11.87;3.77;;;;;;;5.18;100.00;100936.56;5112425;28;20470;-61
2023/03/04 08:30:16;;;;;;;10.73;5.63;;;;;;;5.54;100.00;100944.16;5103576;28;20485;-62
2023/03/04 08:32:43;;;;;;;8.53;3.50;;;;;;;5.62;100.00;100941.91;5108491;28;20448;-62
2023/03/04 08:35:09;;;;;;;9.70;4.53;;;;;;;5.42;100.00;100944.91;5104326;28;20454;-64
2023/03/04 08:37:36;;;;;;;11.80;3.33;;;;;;;5.74;100.00;100937.66;5101961;28;20860;-65
2023/03/04 08:40:03;;;;;;;9.70;2.97;;;;;;;5.69;100.00;100929.13;5102480;28;20439;-64
2023/03/04 08:42:30;;;;;;;10.43;3.50;;;;;;;5.97;100.00;100925.69;5100615;28;20475;-65
2023/03/04 08:44:58;;;;;;;5.97;3.20;;;;;;;6.33;100.00;100928.78;5103432;28;20510;-64
2023/03/04 08:47:24;;;;;;;7.07;4.00;;;;;;;6.09;100.00;100920.56;5122442;28;20476;-64
2023/03/04 08:49:51;;;;;;;7.10;3.30;;;;;;;5.88;100.00;100923.53;5109513;28;20451;-64
2023/03/04 08:52:18;;;;;;;13.50;3.73;;;;;;;5.85;100.00;100926.41;5084143;28;20502;-64
2023/03/04 08:54:44;;;;;;;5.50;2.80;;;;;;;5.76;100.00;100927.78;5122968;28;20468;-63
2023/03/04 08:57:11;;;;;;;15.37;3.23;;;;;;;5.69;100.00;100928.28;5106360;28;20549;-64
2023/03/04 08:59:38;;;;;;;6.00;3.20;;;;;;;5.51;100.00;100923.13;5105815;28;20457;-64
2023/03/04 09:02:06;;;;;;;12.13;3.77;;;;;;;5.59;100.00;100925.31;5099106;28;20485;-64
2023/03/04 09:04:32;;;;;;;5.47;3.73;;;;;;;5.87;100.00;100926.28;5094328;28;20470;-64
2023/03/04 09:06:59;;;;;;;11.93;4.10;;;;;;;5.91;100.00;100928.66;5110221;28;20775;-63
2023/03/04 09:09:26;;;;;;;7.93;3.53;;;;;;;5.71;100.00;100929.03;5105202;28;20531;-63
2023/03/04 09:11:52;;;;;;;4.73;3.40;;;;;;;5.92;100.00;100932.16;5116700;28;20507;-65
2023/03/04 09:14:19;;;;;;;8.10;3.67;;;;;;;5.65;100.00;100930.25;5100293;28;20529;-63
2023/03/04 09:16:46;;;;;;;7.93;3.77;;;;;;;5.69;100.00;100923.81;5108234;28;20649;-64
2023/03/04 09:19:14;;;;;;;7.00;3.30;;;;;;;5.69;100.00;100922.97;5121916;28;20443;-64
2023/03/04 09:21:40;;;;;;;7.30;3.60;;;;;;;5.87;100.00;100927.16;5099883;28;20475;-63
2023/03/04 09:24:07;;;;;;;7.20;2.80;;;;;;;5.54;100.00;100920.28;5105422;28;20445;-63
2023/03/04 09:26:34;;;;;;;10.63;3.40;;;;;;;5.67;100.00;100928.34;5119160;28;20470;-64
2023/03/04 09:29:03;;;;;;;11.00;4.53;;;;;;;5.66;100.00;100934.63;5101049;28;20430;-64
2023/03/04 09:31:30;;;;;;;6.90;4.20;;;;;;;5.41;100.00;100929.91;5101045;28;20490;-63
2023/03/04 09:33:58;;;;;;;8.07;3.83;;;;;;;5.56;100.00;100933.47;5101693;28;20509;-63
2023/03/04 09:36:26;;;;;;;7.37;3.10;;;;;;;5.47;100.00;100938.38;5100668;28;20477;-63
2023/03/04 09:38:53;;;;;;;11.57;4.10;;;;;;;5.73;100.00;100938.63;5101915;28;20513;-64
2023/03/04 09:41:22;;;;;;;10.40;3.80;;;;;;;5.88;100.00;100933.31;5114906;28;20538;-64
2023/03/04 09:43:49;;;;;;;9.17;3.87;;;;;;;5.70;100.00;100930.84;5121327;28;21031;-64
2023/03/04 09:46:19;;;;;;;6.53;3.80;;;;;;;5.67;100.00;100923.06;5121891;28;20485;-63
2023/03/04 09:48:49;;;;;;;7.27;4.07;;;;;;;5.87;100.00;100931.59;5108840;28;20469;-63
2023/03/04 09:51:22;;;;;;;5.40;3.20;;;;;;;5.73;100.00;100927.13;5103621;28;20494;-63
2023/03/04 09:54:02;;;;;;;7.73;2.80;;;;;;;6.11;100.00;100924.84;5121855;28;20490;-64
2023/03/04 09:56:28;;;;;;;7.23;3.43;;;;;;;6.00;100.00;100932.59;5120683;28;20469;-64
2023/03/04 09:59:01;;;;;;;7.87;3.07;;;;;;;5.81;100.00;100938.13;5111658;28;20460;-63
2023/03/04 10:01:31;;;;;;;4.33;3.43;;;;;;;5.94;100.00;100939.09;5101193;28;21106;-63
2023/03/04 10:03:59;;;;;;;6.30;3.00;;;;;;;6.27;100.00;100923.84;5121109;28;20447;-64
2023/03/04 10:06:26;;;;;;;3.47;2.60;;;;;;;6.22;100.00;100922.34;5119608;28;20510;-63
2023/03/04 10:08:58;;;;;;;5.43;2.80;;;;;;;6.64;100.00;100919.72;5121737;28;20434;-63
2023/03/04 10:11:28;;;;;;;4.10;2.60;;;;;;;6.43;100.00;100918.44;5080476;28;20508;-63
2023/03/04 10:14:00;;;;;;;7.07;2.40;;;;;;;6.29;100.00;100916.66;5100752;28;20458;-63
2023/03/04 10:16:32;;;;;;;8.37;3.47;;;;;;;6.35;100.00;100913.59;5121527;28;20989;-64
2023/03/04 10:19:03;;;;;;;9.23;2.60;;;;;;;6.38;100.00;100919.56;5081529;28;20875;-63
2023/03/04 10:21:32;;;;;;;4.57;3.07;;;;;;;6.02;100.00;100923.59;5093972;28;20790;-63
2023/03/04 10:24:01;;;;;;;3.33;2.60;;;;;;;5.71;100.00;100921.94;5100777;28;20519;-63
2023/03/04 10:26:31;;;;;;;5.20;2.87;;;;;;;6.12;100.00;100913.25;5100646;28;20465;-64
2023/03/04 10:29:01;;;;;;;6.57;2.80;;;;;;;6.23;100.00;100907.25;5116678;28;20517;-63
2023/03/04 10:31:33;;;;;;;5.53;3.30;;;;;;;6.24;100.00;100905.47;5120206;28;20577;-64
2023/03/04 10:33:59;;;;;;;3.07;2.70;;;;;;;6.48;100.00;100901.25;5120645;28;20456;-64
2023/03/04 10:36:36;;;;;;;7.20;3.23;;;;;;;6.76;100.00;100905.63;5120347;28;20614;-63
2023/03/04 10:39:09;;;;;;;3.33;2.50;;;;;;;6.81;100.00;100904.50;5119960;28;20457;-63
2023/03/04 10:41:36;;;;;;;5.53;4.63;;;;;;;6.69;100.00;100907.00;5119609;28;20492;-63
2023/03/04 10:44:04;;;;;;;5.00;2.80;;;;;;;6.90;100.00;100904.72;5120895;28;20509;-64
2023/03/04 10:46:32;;;;;;;4.57;3.30;;;;;;;6.83;100.00;100903.44;5103381;28;20488;-64
2023/03/04 10:48:59;;;;;;;4.60;3.20;;;;;;;6.67;100.00;100884.16;5105286;28;20466;-64
2023/03/04 10:51:27;;;;;;;7.00;3.10;;;;;;;6.57;100.00;100897.16;5099418;28;20475;-64
2023/03/04 10:53:57;;;;;;;10.80;5.30;;;;;;;6.42;100.00;100891.00;5100134;28;20450;-63
2023/03/04 10:56:37;;;;;;;6.67;4.50;;;;;;;6.43;100.00;100889.22;5113972;28;20478;-63
2023/03/04 10:59:40;;;;;;;6.67;3.70;;;;;;;6.17;100.00;100889.91;5120212;28;20474;-63
2023/03/04 11:02:16;;;;;;;4.90;3.00;;;;;;;6.61;100.00;100885.38;5120165;28;20921;-63
2023/03/04 11:04:42;;;;;;;7.00;2.87;;;;;;;6.90;100.00;100887.94;5079686;28;20428;-63
2023/03/04 11:07:10;;;;;;;5.83;2.83;;;;;;;7.49;100.00;100888.38;5104001;28;20485;-63
2023/03/04 11:09:39;;;;;;;4.83;2.87;;;;;;;7.76;100.00;100887.44;5119877;28;20453;-63
2023/03/04 11:12:10;;;;;;;6.43;2.80;;;;;;;8.30;100.00;100879.16;5119575;28;20491;-63
2023/03/04 11:14:41;;;;;;;12.20;3.10;;;;;;;8.50;100.00;100884.88;5120102;28;20465;-64
2023/03/04 11:17:21;;;;;;;4.73;3.00;;;;;;;8.13;100.00;100882.19;5120408;28;20478;-63
2023/03/04 11:19:50;;;;;;;4.10;2.30;;;;;;;7.75;100.00;100880.41;5120149;28;20426;-63
2023/03/04 11:22:19;;;;;;;7.43;2.37;;;;;;;7.23;100.00;100884.00;5120442;28;20517;-64
2023/03/04 11:24:53;;;;;;;4.60;1.67;;;;;;;6.81;100.00;100872.63;5104387;28;20479;-64